CYEG/YEG METAR and TAF weather

Enter ICAO airport designator
Station Type Date Time Source
CYEG METAR 2018/01/23 01:00 UTC NOAA

CYEG 230100Z 21004KT 15SM FEW075 SCT090 SCT210 M06/M09 A2989 RMK AC1AC2CI1 SH DIST SW SLP170


Station Type Date Time Source
CYEG Decoded METAR 2018/01/23 01:00 UTC NOAA

Edmonton International, Alta., Canada (CYEG) 53-18N 113-35W 723M
Jan 22, 2018 - 08:00 PM EST / 2018.01.23 0100 UTC
Wind: from the SSW (210 degrees) at 5 MPH (4 KT):0
Visibility: 15 mile(s):0
Sky conditions: partly cloudy
Temperature: 21 F (-6 C)
Windchill: 14 F (-10 C):1
Dew Point: 15 F (-9 C)
Relative Humidity: 79%
Pressure (altimeter): 29.89 in. Hg (1012 hPa)
ob: CYEG 230100Z 21004KT 15SM FEW075 SCT090 SCT210 M06/M09 A2989 RMK AC1AC2CI1 SH DIST SW SLP170
cycle: 1

Station Type Date Time Source
CYEG TAF 2018/01/22 21:42 UTC NOAA

TAF TAF CYEG 222038Z 2221/2318 25005KT P6SM FEW080 SCT160
FM230900 21006KT P6SM BKN080
BECMG 2313/2315 20005KT SKC
RMK NXT FCST BY 230000Z


Example: see airport list